createdAt,value
2023-03-12T00:02:25.072Z,5.49
2023-03-12T00:04:53.187Z,4.45
2023-03-12T00:07:20.949Z,3.68
2023-03-12T00:09:48.610Z,3.17
2023-03-12T00:12:16.276Z,3.48
2023-03-12T00:14:44.047Z,6.38
2023-03-12T00:17:11.802Z,8.12
2023-03-12T00:19:39.563Z,6.95
2023-03-12T00:22:07.337Z,5.50
2023-03-12T00:24:34.989Z,4.46
2023-03-12T00:27:02.657Z,3.73
2023-03-12T00:29:30.413Z,3.17
2023-03-12T00:31:58.082Z,3.83
2023-03-12T00:34:25.841Z,6.83
2023-03-12T00:36:53.501Z,8.24
2023-03-12T00:39:21.270Z,6.97
2023-03-12T00:41:48.934Z,5.43
2023-03-12T00:44:16.687Z,4.41
2023-03-12T00:46:44.539Z,3.65
2023-03-12T00:49:12.325Z,3.10
2023-03-12T00:51:40.080Z,2.75
2023-03-12T00:54:07.741Z,4.45
2023-03-12T00:56:35.405Z,7.36
2023-03-12T00:59:03.170Z,7.27
2023-03-12T01:01:30.934Z,5.71
2023-03-12T01:03:59.962Z,4.56
2023-03-12T01:06:27.796Z,3.75
2023-03-12T01:08:55.967Z,3.16
2023-03-12T01:11:23.630Z,3.32
2023-03-12T01:13:51.290Z,6.13
2023-03-12T01:16:19.100Z,7.33
2023-03-12T01:18:46.922Z,6.08
2023-03-12T01:21:14.994Z,4.80
2023-03-12T01:23:42.759Z,3.93
2023-03-12T01:26:10.521Z,3.32
2023-03-12T01:28:38.285Z,2.85
2023-03-12T01:31:06.015Z,2.79
2023-03-12T01:33:33.706Z,5.24
2023-03-12T01:36:01.469Z,7.64
2023-03-12T01:38:29.341Z,6.87
2023-03-12T01:40:56.999Z,5.45
2023-03-12T01:43:25.174Z,4.44
2023-03-12T01:45:52.980Z,3.72
2023-03-12T01:48:20.710Z,3.18
2023-03-12T01:50:48.472Z,2.75
2023-03-12T01:53:16.655Z,3.63
2023-03-12T01:55:44.606Z,6.41
2023-03-12T01:58:12.264Z,6.49
2023-03-12T02:00:40.034Z,5.13
2023-03-12T02:03:07.904Z,4.02
2023-03-12T02:05:35.661Z,3.26
2023-03-12T02:08:03.942Z,3.04
2023-03-12T02:10:31.607Z,5.22
2023-03-12T02:12:59.367Z,6.53
2023-03-12T02:15:28.046Z,5.43
2023-03-12T02:17:55.698Z,4.19
2023-03-12T02:20:23.589Z,3.33
2023-03-12T02:22:51.357Z,2.76
2023-03-12T02:25:19.112Z,2.91
2023-03-12T02:27:46.875Z,5.48
2023-03-12T02:30:17.708Z,7.31
2023-03-12T02:32:45.424Z,6.29
2023-03-12T02:35:13.340Z,4.75
2023-03-12T02:37:40.997Z,3.66
2023-03-12T02:40:10.095Z,2.96
2023-03-12T02:42:37.742Z,4.31
2023-03-12T02:45:05.434Z,5.82
2023-03-12T02:47:33.180Z,4.88
2023-03-12T02:50:00.948Z,3.62
2023-03-12T02:52:30.757Z,2.75
2023-03-12T02:54:58.421Z,3.76
2023-03-12T02:57:26.080Z,6.10
2023-03-12T02:59:53.733Z,5.69
2023-03-12T03:02:21.403Z,4.18
2023-03-12T03:04:49.384Z,3.14
2023-03-12T03:07:17.136Z,2.46
2023-03-12T03:09:44.801Z,3.53
2023-03-12T03:12:12.568Z,5.84
2023-03-12T03:14:40.326Z,5.22
2023-03-12T03:17:08.088Z,3.92
2023-03-12T03:19:35.732Z,2.94
2023-03-12T03:22:03.516Z,2.25
2023-03-12T03:24:31.282Z,3.01
2023-03-12T03:26:59.046Z,5.52
2023-03-12T03:29:26.718Z,5.41
2023-03-12T03:31:54.477Z,4.14
2023-03-12T03:34:22.237Z,3.16
2023-03-12T03:36:49.997Z,2.38
2023-03-12T03:39:17.786Z,3.44
2023-03-12T03:41:47.467Z,6.30
2023-03-12T03:44:15.132Z,7.35
2023-03-12T03:46:42.806Z,6.04
2023-03-12T03:49:10.456Z,4.39
2023-03-12T03:51:38.233Z,3.29
2023-03-12T03:54:05.999Z,2.52
2023-03-12T03:56:33.645Z,2.01
2023-03-12T03:59:02.241Z,3.62
2023-03-12T04:01:30.200Z,5.98
2023-03-12T04:03:57.971Z,5.40
2023-03-12T04:06:25.723Z,4.11
2023-03-12T04:08:53.488Z,3.08
2023-03-12T04:11:21.278Z,2.32
2023-03-12T04:13:49.015Z,1.77
2023-03-12T04:16:16.850Z,2.39
2023-03-12T04:18:44.746Z,5.39
2023-03-12T04:21:12.407Z,7.12
2023-03-12T04:23:40.136Z,5.75
2023-03-12T04:26:07.936Z,4.18
2023-03-12T04:28:35.717Z,3.09
2023-03-12T04:31:03.499Z,2.27
2023-03-12T04:33:31.344Z,2.79
2023-03-12T04:35:59.072Z,5.62
2023-03-12T04:38:26.757Z,6.92
2023-03-12T04:40:54.420Z,5.63
2023-03-12T04:43:22.184Z,4.12
2023-03-12T04:45:49.819Z,2.96
2023-03-12T04:48:17.510Z,2.30
2023-03-12T04:50:45.274Z,4.07
2023-03-12T04:53:13.052Z,5.33
2023-03-12T04:55:40.804Z,4.15
2023-03-12T04:58:08.567Z,2.87
2023-03-12T05:00:36.232Z,2.05
2023-03-12T05:03:04.018Z,3.33
2023-03-12T05:05:31.761Z,5.18
2023-03-12T05:07:59.931Z,4.55
2023-03-12T05:10:27.696Z,3.19
2023-03-12T05:12:55.459Z,2.27
2023-03-12T05:15:23.222Z,2.55
2023-03-12T05:17:50.912Z,5.15
2023-03-12T05:20:18.657Z,5.45
2023-03-12T05:22:46.421Z,4.03
2023-03-12T05:25:14.594Z,2.94
2023-03-12T05:27:42.557Z,2.20
2023-03-12T05:30:10.263Z,3.17
2023-03-12T05:32:38.053Z,5.71
2023-03-12T05:35:05.752Z,5.48
2023-03-12T05:37:33.516Z,3.96
2023-03-12T05:40:01.171Z,2.81
2023-03-12T05:42:28.936Z,2.33
2023-03-12T05:44:56.597Z,4.28
2023-03-12T05:47:24.363Z,5.23
2023-03-12T05:49:52.150Z,3.78
2023-03-12T05:52:19.890Z,2.66
2023-03-12T05:54:47.649Z,3.29
2023-03-12T05:57:15.412Z,5.87
2023-03-12T05:59:43.076Z,5.89
2023-03-12T06:02:10.885Z,4.52
2023-03-12T06:04:38.700Z,3.26
2023-03-12T06:07:06.479Z,2.48
2023-03-12T06:09:34.227Z,2.19
2023-03-12T06:12:01.891Z,4.15
2023-03-12T06:14:30.169Z,5.68
2023-03-12T06:16:57.922Z,4.86
2023-03-12T06:19:25.706Z,3.57
2023-03-12T06:21:53.463Z,2.74
2023-03-12T06:24:21.225Z,4.09
2023-03-12T06:26:48.888Z,6.09
2023-03-12T06:29:16.565Z,5.32
2023-03-12T06:31:44.551Z,4.03
2023-03-12T06:34:12.481Z,3.19
2023-03-12T06:36:40.142Z,2.57
2023-03-12T06:39:09.238Z,3.54
2023-03-12T06:41:37.119Z,5.98
2023-03-12T06:44:06.527Z,5.96
2023-03-12T06:46:34.559Z,4.63
2023-03-12T06:49:02.450Z,3.51
2023-03-12T06:51:30.211Z,2.78
2023-03-12T06:53:57.939Z,3.91
2023-03-12T06:56:25.840Z,5.70
2023-03-12T06:58:53.501Z,5.29
2023-03-12T07:01:21.162Z,4.03
2023-03-12T07:03:48.930Z,3.20
2023-03-12T07:06:16.692Z,3.05
2023-03-12T07:08:44.466Z,5.34
2023-03-12T07:11:12.222Z,7.37
2023-03-12T07:13:40.090Z,6.31
2023-03-12T07:16:07.913Z,4.75
2023-03-12T07:18:35.725Z,3.67
2023-03-12T07:21:03.385Z,3.00
2023-03-12T07:23:31.151Z,3.39
2023-03-12T07:25:58.913Z,5.92
2023-03-12T07:28:26.585Z,5.75
2023-03-12T07:30:54.339Z,4.36
2023-03-12T07:33:22.292Z,3.49
2023-03-12T07:35:51.732Z,2.93
2023-03-12T07:38:19.804Z,3.69
2023-03-12T07:40:47.926Z,5.58
2023-03-12T07:43:15.822Z,4.88
2023-03-12T07:45:43.599Z,3.87
2023-03-12T07:48:11.606Z,3.25
2023-03-12T07:50:39.417Z,2.82
2023-03-12T07:53:07.082Z,4.16
2023-03-12T07:55:34.914Z,5.75
2023-03-12T07:58:02.739Z,4.83
2023-03-12T08:00:30.795Z,3.86
2023-03-12T08:02:58.785Z,3.18
2023-03-12T08:05:27.277Z,2.79
2023-03-12T08:07:55.095Z,4.10
2023-03-12T08:10:22.901Z,6.13
2023-03-12T08:12:50.860Z,5.29
2023-03-12T08:15:18.691Z,4.08
2023-03-12T08:17:46.654Z,3.45
2023-03-12T08:20:14.426Z,3.03
2023-03-12T08:22:42.193Z,2.72
2023-03-12T08:25:09.959Z,3.07
2023-03-12T08:27:37.715Z,5.38
2023-03-12T08:30:05.961Z,5.47
2023-03-12T08:32:33.942Z,4.56
2023-03-12T08:35:01.826Z,3.90
2023-03-12T08:37:30.513Z,3.40
2023-03-12T08:39:58.174Z,3.07
2023-03-12T08:42:25.838Z,2.86
2023-03-12T08:44:53.598Z,2.72
2023-03-12T08:47:21.280Z,3.22
2023-03-12T08:49:48.930Z,6.12
2023-03-12T08:52:17.099Z,6.93
2023-03-12T08:54:44.864Z,5.73
2023-03-12T08:57:12.627Z,4.84
2023-03-12T08:59:40.294Z,4.20
2023-03-12T09:02:07.952Z,3.86
2023-03-12T09:04:35.634Z,3.56
2023-03-12T09:07:03.485Z,3.39
2023-03-12T09:09:31.245Z,3.27
2023-03-12T09:11:58.905Z,3.18
2023-03-12T09:17:14.198Z,3.10
2023-03-12T09:19:41.964Z,3.52
2023-03-12T09:22:09.622Z,6.13
2023-03-12T09:24:37.384Z,7.04
2023-03-12T09:27:05.044Z,6.12
2023-03-12T09:29:32.816Z,5.37
2023-03-12T09:32:00.468Z,4.83
2023-03-12T09:34:28.105Z,4.49
2023-03-12T09:36:55.891Z,4.24
2023-03-12T09:39:23.779Z,4.05
2023-03-12T09:41:51.726Z,3.92
2023-03-12T09:44:19.592Z,3.85
2023-03-12T09:46:47.357Z,3.78
2023-03-12T09:49:15.023Z,3.74
2023-03-12T09:51:42.789Z,3.69
2023-03-12T09:54:10.547Z,3.67
2023-03-12T09:56:38.209Z,3.67
2023-03-12T09:59:05.870Z,3.70
2023-03-12T10:01:33.635Z,3.75
2023-03-12T10:04:01.298Z,3.80
2023-03-12T10:06:29.806Z,3.87
2023-03-12T10:08:57.646Z,3.93
2023-03-12T10:11:25.408Z,4.03
2023-03-12T10:13:53.173Z,4.10
2023-03-12T10:16:20.991Z,4.13
2023-03-12T10:18:49.005Z,4.15
2023-03-12T10:21:16.874Z,4.13
2023-03-12T10:23:44.558Z,4.08
2023-03-12T10:26:12.299Z,4.02
2023-03-12T10:28:40.988Z,3.95
2023-03-12T10:31:08.694Z,3.89
2023-03-12T10:33:36.517Z,3.87
2023-03-12T10:36:04.210Z,3.85
2023-03-12T10:38:31.943Z,3.84
2023-03-12T10:40:59.701Z,3.84
2023-03-12T10:43:27.471Z,3.83
2023-03-12T10:45:55.355Z,3.82
2023-03-12T10:48:23.211Z,3.81
2023-03-12T10:50:50.963Z,3.80
2023-03-12T10:53:18.623Z,3.79
2023-03-12T10:55:46.288Z,3.77
2023-03-12T10:58:13.947Z,3.80
2023-03-12T11:00:41.614Z,3.82
2023-03-12T11:03:09.270Z,3.83
2023-03-12T11:05:37.059Z,3.86
2023-03-12T11:08:05.003Z,3.92
2023-03-12T11:10:32.984Z,3.98
2023-03-12T11:13:00.838Z,4.05
2023-03-12T11:15:29.421Z,4.14
2023-03-12T11:17:57.084Z,4.29
2023-03-12T11:20:24.846Z,4.44
2023-03-12T11:22:52.487Z,4.53
2023-03-12T11:25:20.155Z,4.57
2023-03-12T11:27:47.830Z,4.59
2023-03-12T11:30:15.657Z,4.62
2023-03-12T11:32:43.661Z,4.60
2023-03-12T11:35:11.647Z,4.58
2023-03-12T11:37:40.556Z,4.53
2023-03-12T11:40:10.234Z,4.50
2023-03-12T11:42:37.900Z,4.50
2023-03-12T11:45:05.976Z,4.53
2023-03-12T11:47:33.864Z,4.60
2023-03-12T11:50:01.604Z,4.69
2023-03-12T11:52:29.367Z,4.81
2023-03-12T11:54:57.026Z,4.93
2023-03-12T11:57:24.686Z,5.03
2023-03-12T11:59:52.453Z,5.08
2023-03-12T12:02:20.678Z,5.15
2023-03-12T12:04:48.494Z,5.21
2023-03-12T12:07:16.155Z,5.30
2023-03-12T12:09:43.924Z,5.37
2023-03-12T12:12:11.691Z,5.40
2023-03-12T12:14:39.554Z,5.44
2023-03-12T12:17:07.310Z,5.48
2023-03-12T12:19:35.065Z,5.49
2023-03-12T12:22:02.956Z,5.46
2023-03-12T12:24:30.808Z,5.42
2023-03-12T12:26:58.573Z,5.37
2023-03-12T12:29:26.191Z,5.40
2023-03-12T12:31:53.903Z,5.43
2023-03-12T12:34:21.659Z,5.46
2023-03-12T12:36:49.422Z,5.49
2023-03-12T12:39:17.083Z,5.52
2023-03-12T12:41:44.784Z,5.58
2023-03-12T12:44:12.722Z,5.64
2023-03-12T12:46:40.488Z,5.70
2023-03-12T12:49:08.256Z,5.75
2023-03-12T12:51:36.110Z,5.71
2023-03-12T12:54:03.893Z,5.67
2023-03-12T12:56:31.741Z,5.68
2023-03-12T12:58:59.509Z,5.69
2023-03-12T13:01:27.960Z,5.74
2023-03-12T13:03:55.979Z,5.78
2023-03-12T13:06:23.720Z,5.75
2023-03-12T13:08:51.538Z,5.69
2023-03-12T13:11:20.790Z,5.64
2023-03-12T13:13:49.571Z,5.62
2023-03-12T13:16:17.278Z,5.65
2023-03-12T13:18:45.111Z,5.71
2023-03-12T13:21:12.974Z,5.79
2023-03-12T13:23:40.936Z,5.85
2023-03-12T13:26:08.710Z,5.92
2023-03-12T13:28:36.683Z,5.98
2023-03-12T13:31:04.479Z,5.97
2023-03-12T13:33:32.202Z,5.92
2023-03-12T13:35:59.890Z,5.90
2023-03-12T13:38:31.641Z,5.92
2023-03-12T13:41:02.474Z,5.91
2023-03-12T13:43:30.331Z,5.92
2023-03-12T13:45:58.010Z,5.96
2023-03-12T13:48:26.158Z,5.96
2023-03-12T13:50:53.766Z,5.94
2023-03-12T13:53:21.587Z,5.93
2023-03-12T13:55:49.241Z,5.94
2023-03-12T13:58:17.111Z,5.98
2023-03-12T14:00:44.774Z,6.02
2023-03-12T14:03:12.535Z,6.08
2023-03-12T14:05:40.194Z,6.12
2023-03-12T14:08:09.904Z,6.14
2023-03-12T14:10:37.566Z,6.13
2023-03-12T14:13:05.226Z,6.14
2023-03-12T14:15:33.226Z,6.17
2023-03-12T14:18:00.965Z,6.19
2023-03-12T14:20:28.722Z,6.22
2023-03-12T14:22:56.487Z,6.26
2023-03-12T14:25:24.148Z,6.27
2023-03-12T14:27:51.928Z,6.29
2023-03-12T14:30:19.786Z,6.32
2023-03-12T14:32:48.297Z,6.35
2023-03-12T14:35:16.669Z,6.37
2023-03-12T14:37:44.641Z,6.38
2023-03-12T14:40:12.485Z,6.37
2023-03-12T14:42:40.451Z,6.35
2023-03-12T14:45:08.108Z,6.32
2023-03-12T14:47:35.768Z,6.28
2023-03-12T14:50:04.169Z,6.23
2023-03-12T14:52:36.014Z,6.18
2023-03-12T14:55:04.795Z,6.13
2023-03-12T14:57:32.556Z,6.08
2023-03-12T15:00:00.525Z,6.03
2023-03-12T15:02:28.184Z,5.98
2023-03-12T15:04:56.082Z,5.95
2023-03-12T15:07:24.021Z,5.94
2023-03-12T15:09:51.786Z,5.91
2023-03-12T15:12:19.448Z,5.88
2023-03-12T15:14:49.610Z,5.84
2023-03-12T15:17:17.456Z,5.78
2023-03-12T15:19:45.200Z,5.72
2023-03-12T15:22:12.959Z,5.69
2023-03-12T15:24:41.031Z,5.67
2023-03-12T15:27:08.699Z,5.65
2023-03-12T15:29:36.355Z,5.61
2023-03-12T15:32:04.432Z,5.58
2023-03-12T15:34:33.161Z,5.54
2023-03-12T15:37:01.182Z,5.51
2023-03-12T15:39:29.928Z,5.47
2023-03-12T15:41:57.763Z,5.45
2023-03-12T15:44:25.610Z,5.41
2023-03-12T15:46:53.459Z,5.39
2023-03-12T15:49:21.333Z,5.37
2023-03-12T15:51:49.015Z,5.35
2023-03-12T15:54:16.760Z,5.34
2023-03-12T15:56:44.523Z,5.31
2023-03-12T15:59:12.288Z,5.28
2023-03-12T16:01:39.984Z,5.27
2023-03-12T16:04:07.822Z,5.25
2023-03-12T16:06:36.706Z,5.23
2023-03-12T16:09:04.338Z,5.22
2023-03-12T16:11:32.352Z,5.21
2023-03-12T16:14:00.311Z,5.19
2023-03-12T16:16:28.123Z,5.17
2023-03-12T16:18:55.953Z,5.16
2023-03-12T16:21:23.700Z,5.14
2023-03-12T16:23:51.470Z,5.14
2023-03-12T16:26:19.850Z,5.12
2023-03-12T16:28:47.608Z,5.10
2023-03-12T16:31:15.472Z,5.08
2023-03-12T16:33:44.061Z,5.06
2023-03-12T16:36:12.542Z,5.04
2023-03-12T16:38:40.302Z,5.01
2023-03-12T16:41:07.969Z,4.99
2023-03-12T16:43:35.624Z,4.97
2023-03-12T16:46:04.134Z,4.95
2023-03-12T16:48:32.087Z,4.92
2023-03-12T16:51:00.137Z,4.90
2023-03-12T16:53:28.112Z,4.87
2023-03-12T16:55:55.779Z,4.85
2023-03-12T16:58:24.251Z,4.84
2023-03-12T17:00:51.934Z,4.82
2023-03-12T17:03:19.780Z,4.79
2023-03-12T17:05:47.542Z,4.78
2023-03-12T17:08:15.853Z,4.76
2023-03-12T17:10:43.787Z,4.74
2023-03-12T17:13:11.699Z,4.74
2023-03-12T17:15:39.692Z,4.73
2023-03-12T17:18:09.691Z,4.72
2023-03-12T17:20:37.710Z,4.71
2023-03-12T17:23:05.370Z,4.70
2023-03-12T17:25:33.150Z,4.68
2023-03-12T17:28:00.904Z,4.66
2023-03-12T17:30:28.560Z,4.64
2023-03-12T17:32:57.932Z,4.63
2023-03-12T17:35:25.642Z,4.61
2023-03-12T17:37:53.391Z,4.60
2023-03-12T17:40:21.158Z,4.60
2023-03-12T17:42:48.917Z,4.59
2023-03-12T17:45:16.798Z,4.58
2023-03-12T17:47:44.597Z,4.57
2023-03-12T17:50:12.534Z,4.57
2023-03-12T17:52:40.283Z,4.57
2023-03-12T17:55:10.444Z,4.57
2023-03-12T17:57:39.524Z,4.56
2023-03-12T18:00:11.876Z,4.56
2023-03-12T18:02:39.633Z,4.57
2023-03-12T18:05:07.787Z,4.57
2023-03-12T18:07:35.679Z,4.58
2023-03-12T18:10:03.438Z,4.58
2023-03-12T18:12:31.100Z,4.56
2023-03-12T18:14:58.759Z,4.56
2023-03-12T18:17:26.420Z,4.55
2023-03-12T18:19:54.086Z,4.55
2023-03-12T18:22:21.949Z,4.54
2023-03-12T18:24:49.813Z,4.54
2023-03-12T18:27:17.578Z,4.52
2023-03-12T18:29:45.320Z,4.50
2023-03-12T18:32:13.620Z,4.48
2023-03-12T18:34:42.616Z,4.45
2023-03-12T18:37:10.382Z,4.44
2023-03-12T18:39:38.041Z,4.42
2023-03-12T18:42:05.811Z,4.40
2023-03-12T18:44:33.579Z,4.38
2023-03-12T18:47:01.384Z,4.35
2023-03-12T18:49:29.405Z,4.33
2023-03-12T18:51:57.168Z,4.29
2023-03-12T18:54:24.999Z,4.26
2023-03-12T18:56:52.799Z,4.24
2023-03-12T18:59:20.668Z,4.21
2023-03-12T19:01:48.326Z,4.19
2023-03-12T19:04:16.041Z,4.17
2023-03-12T19:06:50.734Z,4.16
2023-03-12T19:09:19.713Z,4.13
2023-03-12T19:11:48.148Z,4.12
2023-03-12T19:14:16.463Z,4.10
2023-03-12T19:16:44.232Z,4.09
2023-03-12T19:19:11.998Z,4.07
2023-03-12T19:21:39.660Z,4.05
2023-03-12T19:24:08.015Z,4.01
2023-03-12T19:26:36.359Z,3.97
2023-03-12T19:29:04.084Z,3.93
2023-03-12T19:31:31.900Z,3.91
2023-03-12T19:33:59.705Z,3.88
2023-03-12T19:36:27.371Z,3.88
2023-03-12T19:38:55.742Z,3.88
2023-03-12T19:41:23.517Z,3.87
2023-03-12T19:43:51.170Z,3.86
2023-03-12T19:46:18.981Z,3.85
2023-03-12T19:48:46.694Z,3.86
2023-03-12T19:51:14.357Z,3.86
2023-03-12T19:53:42.124Z,3.86
2023-03-12T19:56:10.005Z,3.85
2023-03-12T19:58:37.750Z,3.86
2023-03-12T20:01:05.409Z,3.86
2023-03-12T20:03:33.370Z,3.85
2023-03-12T20:06:01.270Z,3.85
2023-03-12T20:08:32.096Z,3.85
2023-03-12T20:10:59.847Z,3.85
2023-03-12T20:13:27.508Z,3.84
2023-03-12T20:15:55.271Z,3.82
2023-03-12T20:18:22.931Z,3.83
2023-03-12T20:20:50.699Z,3.82
2023-03-12T20:23:18.463Z,3.82
2023-03-12T20:25:46.223Z,3.81
2023-03-12T20:28:14.093Z,3.80
2023-03-12T20:30:41.855Z,3.79
2023-03-12T20:33:09.615Z,3.77
2023-03-12T20:35:37.334Z,3.77
2023-03-12T20:38:05.159Z,3.76
2023-03-12T20:40:32.815Z,3.75
2023-03-12T20:43:05.004Z,3.74
2023-03-12T20:45:35.268Z,3.72
2023-03-12T20:48:03.006Z,3.72
2023-03-12T20:50:31.340Z,3.72
2023-03-12T20:52:59.929Z,3.72
2023-03-12T20:55:27.735Z,3.73
2023-03-12T20:57:55.453Z,3.75
2023-03-12T21:00:23.217Z,3.77
2023-03-12T21:02:50.923Z,3.78
2023-03-12T21:05:18.747Z,3.79
2023-03-12T21:07:46.408Z,3.81
2023-03-12T21:10:16.634Z,3.81
2023-03-12T21:12:44.292Z,3.82
2023-03-12T21:15:12.780Z,3.82
2023-03-12T21:17:40.768Z,3.82
2023-03-12T21:20:11.269Z,3.82
2023-03-12T21:22:39.042Z,3.82
2023-03-12T21:25:06.697Z,3.82
2023-03-12T21:27:48.068Z,3.82
2023-03-12T21:30:17.994Z,3.83
2023-03-12T21:32:45.735Z,3.82
2023-03-12T21:35:13.441Z,3.82
2023-03-12T21:37:41.397Z,3.82
2023-03-12T21:40:09.473Z,3.82
2023-03-12T21:42:37.124Z,3.82
2023-03-12T21:45:04.899Z,3.81
2023-03-12T21:47:32.546Z,3.81
2023-03-12T21:50:00.211Z,3.81
2023-03-12T21:52:27.871Z,3.81
2023-03-12T21:54:55.533Z,3.80
2023-03-12T21:57:23.191Z,3.80
2023-03-12T21:59:50.851Z,3.81
2023-03-12T22:02:18.515Z,3.80
2023-03-12T22:04:46.235Z,3.81
2023-03-12T22:07:14.048Z,3.82
2023-03-12T22:09:41.703Z,3.83
2023-03-12T22:12:09.470Z,3.83
2023-03-12T22:14:37.440Z,3.85
2023-03-12T22:17:05.328Z,3.85
2023-03-12T22:19:33.067Z,3.87
2023-03-12T22:22:00.830Z,3.87
2023-03-12T22:24:28.493Z,3.87
2023-03-12T22:26:56.263Z,3.89
2023-03-12T22:29:24.019Z,3.90
2023-03-12T22:31:51.679Z,3.91
2023-03-12T22:34:19.444Z,3.92
2023-03-12T22:36:47.116Z,3.93
2023-03-12T22:39:14.766Z,3.94
2023-03-12T22:41:42.735Z,3.95
2023-03-12T22:44:10.396Z,3.96
2023-03-12T22:46:38.074Z,3.97
2023-03-12T22:49:05.928Z,3.97
2023-03-12T22:51:33.729Z,3.97
2023-03-12T22:54:01.565Z,3.98
2023-03-12T22:56:29.317Z,3.99
2023-03-12T22:58:57.085Z,4.00
2023-03-12T23:01:24.950Z,4.01
2023-03-12T23:03:52.716Z,4.03
2023-03-12T23:06:20.381Z,4.04
2023-03-12T23:08:48.447Z,4.05
2023-03-12T23:11:16.235Z,4.07
2023-03-12T23:13:44.730Z,4.07
2023-03-12T23:16:12.608Z,4.08
2023-03-12T23:18:40.319Z,4.08
2023-03-12T23:21:08.093Z,4.10
2023-03-12T23:23:35.743Z,4.11
2023-03-12T23:26:03.856Z,4.12
2023-03-12T23:28:31.587Z,4.12
2023-03-12T23:30:59.343Z,4.13
2023-03-12T23:33:27.113Z,4.14
2023-03-12T23:35:54.990Z,4.15
2023-03-12T23:38:23.047Z,4.15
2023-03-12T23:40:51.022Z,4.16
2023-03-12T23:43:18.692Z,4.17
2023-03-12T23:45:46.727Z,4.18
2023-03-12T23:48:14.412Z,4.18
2023-03-12T23:50:42.385Z,4.19
2023-03-12T23:53:10.046Z,4.19
2023-03-12T23:55:37.706Z,4.20
2023-03-12T23:58:05.363Z,4.20
